createdAt,value
2022-11-25T00:01:07.376Z,4.70
2022-11-25T00:03:36.216Z,4.50
2022-11-25T00:06:12.379Z,4.50
2022-11-25T00:08:40.853Z,4.70
2022-11-25T00:11:10.518Z,4.40
2022-11-25T00:13:38.979Z,4.50
2022-11-25T00:16:10.607Z,4.80
2022-11-25T00:18:39.576Z,4.60
2022-11-25T00:21:08.673Z,4.50
2022-11-25T00:23:37.340Z,4.90
2022-11-25T00:26:11.791Z,4.80
2022-11-25T00:28:40.520Z,4.60
2022-11-25T00:31:12.561Z,4.90
2022-11-25T00:33:40.896Z,4.80
2022-11-25T00:36:16.337Z,4.60
2022-11-25T00:38:45.819Z,4.80
2022-11-25T00:41:41.669Z,4.40
2022-11-25T00:44:28.973Z,4.80
2022-11-25T00:46:56.730Z,4.10
2022-11-25T00:49:24.546Z,4.40
2022-11-25T00:51:52.816Z,4.70
2022-11-25T00:54:20.609Z,4.40
2022-11-25T00:56:49.861Z,4.30
2022-11-25T00:59:18.655Z,4.90
2022-11-25T01:01:46.482Z,4.80
2022-11-25T01:04:14.520Z,4.70
2022-11-25T01:06:42.596Z,4.60
2022-11-25T01:09:11.684Z,4.70
2022-11-25T01:11:40.359Z,4.70
2022-11-25T01:14:09.668Z,4.30
2022-11-25T01:16:37.771Z,4.40
2022-11-25T01:19:08.511Z,4.60
2022-11-25T01:21:36.500Z,4.50
2022-11-25T01:24:06.412Z,4.00
2022-11-25T01:26:35.880Z,4.00
2022-11-25T01:29:05.268Z,4.10
2022-11-25T01:31:37.622Z,4.30
2022-11-25T01:34:08.252Z,3.80
2022-11-25T01:36:36.529Z,4.10
2022-11-25T01:39:05.575Z,3.90
2022-11-25T01:41:34.998Z,3.40
2022-11-25T01:44:08.782Z,3.70
2022-11-25T01:47:01.873Z,4.00
2022-11-25T01:49:40.018Z,4.20
2022-11-25T01:52:16.405Z,3.10
2022-11-25T01:54:49.598Z,3.60
2022-11-25T01:57:22.755Z,3.40
2022-11-25T01:59:53.257Z,3.00
2022-11-25T02:02:22.846Z,3.30
2022-11-25T02:04:51.185Z,3.50
2022-11-25T02:07:25.135Z,3.10
2022-11-25T02:09:53.343Z,3.30
2022-11-25T02:12:22.669Z,3.90
2022-11-25T02:14:52.669Z,3.60
2022-11-25T02:17:22.308Z,4.00
2022-11-25T02:19:59.136Z,3.70
2022-11-25T02:22:37.124Z,3.60
2022-11-25T02:25:18.460Z,3.80
2022-11-25T02:27:48.862Z,4.20
2022-11-25T02:30:17.709Z,4.30
2022-11-25T02:32:46.107Z,4.50
2022-11-25T02:35:35.655Z,4.50
2022-11-25T02:38:10.189Z,4.70
2022-11-25T02:40:52.327Z,4.80
2022-11-25T02:43:20.414Z,4.50
2022-11-25T02:46:00.593Z,4.70
2022-11-25T02:49:00.878Z,4.70
2022-11-25T02:51:22.378Z,4.60
2022-11-25T02:53:50.563Z,5.00
2022-11-25T02:56:22.547Z,4.50
2022-11-25T02:58:50.311Z,5.10
2022-11-25T03:01:18.235Z,4.90
2022-11-25T03:03:46.166Z,5.30
2022-11-25T03:06:13.991Z,5.30
2022-11-25T03:08:41.756Z,4.90
2022-11-25T03:11:12.719Z,4.90
2022-11-25T03:13:41.936Z,5.30
2022-11-25T03:16:10.371Z,5.40
2022-11-25T03:18:38.389Z,5.60
2022-11-25T03:21:07.258Z,5.30
2022-11-25T03:23:36.038Z,5.50
2022-11-25T03:26:06.937Z,5.30
2022-11-25T03:28:34.969Z,5.10
2022-11-25T03:31:04.091Z,5.50
2022-11-25T03:33:31.944Z,5.30
2022-11-25T03:35:59.696Z,5.20
2022-11-25T03:38:27.525Z,5.40
2022-11-25T03:40:55.401Z,5.10
2022-11-25T03:43:23.219Z,5.50
2022-11-25T03:45:51.220Z,5.40
2022-11-25T03:48:20.459Z,5.50
2022-11-25T03:50:49.320Z,5.00
2022-11-25T03:53:17.069Z,5.40
2022-11-25T03:55:45.261Z,4.80
2022-11-25T03:58:13.071Z,5.10
2022-11-25T04:00:40.848Z,5.40
2022-11-25T04:03:08.681Z,5.20
2022-11-25T04:05:37.790Z,5.50
2022-11-25T04:08:08.159Z,5.30
2022-11-25T04:10:37.100Z,5.50
2022-11-25T04:13:05.638Z,5.00
2022-11-25T04:15:37.618Z,5.50
2022-11-25T04:18:06.472Z,5.00
2022-11-25T04:20:35.043Z,5.10
2022-11-25T04:23:07.165Z,4.80
2022-11-25T04:25:38.346Z,4.90
2022-11-25T04:28:12.910Z,5.30
2022-11-25T04:30:41.914Z,5.00
2022-11-25T04:33:09.869Z,5.40
2022-11-25T04:35:37.676Z,5.10
2022-11-25T04:38:06.881Z,5.30
2022-11-25T04:40:36.656Z,5.40
2022-11-25T04:43:13.672Z,5.00
2022-11-25T04:46:12.912Z,5.40
2022-11-25T04:48:37.485Z,5.00
2022-11-25T04:51:05.509Z,4.90
2022-11-25T04:53:35.010Z,5.20
2022-11-25T04:56:02.768Z,5.30
2022-11-25T04:59:02.147Z,5.00
2022-11-25T05:01:30.825Z,4.80
2022-11-25T05:04:09.614Z,5.30
2022-11-25T05:06:37.645Z,5.20
2022-11-25T05:09:07.644Z,4.80
2022-11-25T05:11:38.094Z,5.00
2022-11-25T05:14:06.579Z,5.10
2022-11-25T05:16:35.170Z,4.80
2022-11-25T05:19:04.008Z,5.20
2022-11-25T05:21:31.808Z,4.80
2022-11-25T05:23:59.723Z,4.90
2022-11-25T05:26:31.736Z,4.50
2022-11-25T05:29:00.912Z,4.90
2022-11-25T05:31:30.493Z,4.80
2022-11-25T05:34:01.806Z,4.40
2022-11-25T05:36:30.214Z,4.90
2022-11-25T05:38:58.539Z,4.90
2022-11-25T05:41:41.879Z,4.90
2022-11-25T05:44:09.710Z,5.00
2022-11-25T05:46:38.553Z,5.00
2022-11-25T05:49:06.681Z,4.40
2022-11-25T05:51:34.426Z,4.90
2022-11-25T05:54:04.972Z,4.40
2022-11-25T05:56:35.392Z,4.60
2022-11-25T05:59:40.153Z,5.00
2022-11-25T06:02:31.126Z,4.90
2022-11-25T06:04:59.039Z,5.00
2022-11-25T06:07:26.842Z,4.50
2022-11-25T06:10:00.049Z,4.50
2022-11-25T06:12:31.378Z,4.80
2022-11-25T06:15:00.616Z,4.60
2022-11-25T06:17:28.765Z,4.90
2022-11-25T06:20:05.901Z,4.90
2022-11-25T06:22:33.733Z,4.70
2022-11-25T06:25:04.038Z,4.80
2022-11-25T06:27:57.002Z,4.90
2022-11-25T06:30:23.164Z,4.30
2022-11-25T06:33:04.140Z,4.60
2022-11-25T06:35:31.920Z,4.40
2022-11-25T06:38:02.624Z,4.40
2022-11-25T06:40:30.368Z,4.80
2022-11-25T06:42:58.095Z,4.40
2022-11-25T06:45:27.306Z,4.70
2022-11-25T06:47:55.049Z,4.80
2022-11-25T06:50:22.804Z,4.40
2022-11-25T06:52:50.534Z,4.50
2022-11-25T06:55:18.409Z,4.60
2022-11-25T06:57:46.156Z,4.40
2022-11-25T07:00:14.873Z,4.20
2022-11-25T07:02:48.198Z,4.60
2022-11-25T07:05:16.504Z,4.90
2022-11-25T07:07:44.354Z,4.40
2022-11-25T07:10:12.495Z,4.70
2022-11-25T07:12:40.717Z,4.40
2022-11-25T07:15:08.969Z,4.80
2022-11-25T07:17:36.690Z,4.70
2022-11-25T07:20:07.299Z,4.30
2022-11-25T07:22:35.020Z,4.50
2022-11-25T07:25:03.956Z,4.70
2022-11-25T07:27:31.689Z,4.60
2022-11-25T07:30:29.678Z,4.80
2022-11-25T07:32:47.188Z,4.80
2022-11-25T07:35:16.484Z,4.90
2022-11-25T07:37:44.279Z,4.50
2022-11-25T07:40:13.300Z,4.70
2022-11-25T07:42:41.044Z,4.80
2022-11-25T07:45:11.073Z,4.60
2022-11-25T07:47:43.333Z,5.00
2022-11-25T07:50:11.479Z,4.60
2022-11-25T07:52:41.931Z,4.50
2022-11-25T07:55:10.417Z,4.50
2022-11-25T07:57:38.155Z,4.40
2022-11-25T08:00:07.540Z,4.80
2022-11-25T08:02:39.630Z,4.50
2022-11-25T08:05:08.477Z,5.00
2022-11-25T08:07:36.855Z,4.90
2022-11-25T08:10:07.124Z,4.60
2022-11-25T08:12:34.950Z,4.50
2022-11-25T08:15:02.732Z,5.00
2022-11-25T08:17:30.493Z,5.20
2022-11-25T08:19:58.799Z,5.20
2022-11-25T08:22:26.557Z,4.80
2022-11-25T08:24:54.280Z,5.20
2022-11-25T08:27:23.403Z,4.80
2022-11-25T08:29:51.176Z,4.80
2022-11-25T08:32:18.982Z,5.00
2022-11-25T08:34:46.730Z,5.10
2022-11-25T08:37:14.632Z,4.80
2022-11-25T08:39:58.241Z,4.80
2022-11-25T08:42:28.103Z,5.10
2022-11-25T08:44:57.011Z,5.10
2022-11-25T08:47:25.206Z,5.20
2022-11-25T08:49:53.645Z,4.70
2022-11-25T08:52:21.896Z,5.30
2022-11-25T08:54:50.466Z,4.70
2022-11-25T08:57:18.232Z,4.80
2022-11-25T08:59:47.319Z,5.30
2022-11-25T09:02:17.798Z,5.00
2022-11-25T09:04:45.860Z,5.20
2022-11-25T09:07:13.723Z,4.70
2022-11-25T09:09:41.551Z,5.00
2022-11-25T09:12:09.394Z,5.40
2022-11-25T09:14:37.146Z,4.90
2022-11-25T09:17:11.149Z,4.90
2022-11-25T09:19:39.194Z,5.00
2022-11-25T09:22:07.840Z,5.20
2022-11-25T09:24:35.758Z,5.10
2022-11-25T09:27:03.531Z,5.00
2022-11-25T09:29:31.369Z,5.30
2022-11-25T09:31:59.214Z,5.50
2022-11-25T09:34:28.345Z,5.30
2022-11-25T09:36:56.101Z,5.60
2022-11-25T09:39:28.066Z,5.60
2022-11-25T09:42:24.391Z,5.20
2022-11-25T09:45:21.883Z,5.60
2022-11-25T09:47:59.354Z,5.50
2022-11-25T09:50:42.124Z,5.20
2022-11-25T09:53:22.762Z,5.80
2022-11-25T09:56:01.159Z,5.40
2022-11-25T09:58:34.977Z,5.60
2022-11-25T10:01:07.038Z,5.10
2022-11-25T10:03:40.145Z,5.90
2022-11-25T10:06:15.940Z,5.40
2022-11-25T10:08:46.540Z,5.80
2022-11-25T10:11:27.427Z,5.50
2022-11-25T10:13:59.524Z,6.00
2022-11-25T10:16:35.342Z,6.00
2022-11-25T10:19:06.910Z,5.80
2022-11-25T10:21:36.313Z,5.70
2022-11-25T10:24:05.738Z,6.00
2022-11-25T10:26:38.312Z,5.60
2022-11-25T10:29:23.409Z,5.90
2022-11-25T10:31:55.601Z,5.70
2022-11-25T10:34:29.845Z,6.00
2022-11-25T10:37:01.520Z,6.00
2022-11-25T10:39:32.323Z,5.80
2022-11-25T10:42:04.627Z,5.90
2022-11-25T10:44:34.082Z,6.20
2022-11-25T10:47:18.689Z,5.90
2022-11-25T10:49:57.862Z,5.90
2022-11-25T10:52:31.154Z,6.00
2022-11-25T10:55:09.516Z,5.60
2022-11-25T10:57:37.447Z,6.30
2022-11-25T11:00:12.792Z,6.00
2022-11-25T11:02:48.194Z,5.70
2022-11-25T11:05:23.075Z,6.20
2022-11-25T11:08:19.407Z,6.00
2022-11-25T11:10:51.618Z,6.00
2022-11-25T11:13:25.804Z,6.40
2022-11-25T11:15:54.865Z,6.20
2022-11-25T11:18:26.901Z,6.00
2022-11-25T11:20:56.518Z,6.40
2022-11-25T11:23:26.570Z,6.00
2022-11-25T11:26:02.708Z,6.20
2022-11-25T11:28:39.184Z,6.10
2022-11-25T11:31:17.456Z,6.30
2022-11-25T11:33:56.642Z,6.30
2022-11-25T11:36:52.597Z,6.30
2022-11-25T11:39:51.139Z,6.40
2022-11-25T11:42:31.041Z,6.50
2022-11-25T11:45:06.166Z,6.10
2022-11-25T11:47:39.557Z,6.40
2022-11-25T11:50:24.202Z,6.30
2022-11-25T11:52:58.480Z,6.30
2022-11-25T11:55:39.872Z,6.30
2022-11-25T11:58:18.285Z,6.30
2022-11-25T12:00:55.332Z,6.40
2022-11-25T12:03:26.291Z,6.50
2022-11-25T12:05:57.304Z,6.50
2022-11-25T12:08:32.853Z,6.60
2022-11-25T12:11:05.800Z,6.50
2022-11-25T12:13:41.467Z,6.60
2022-11-25T12:16:13.079Z,6.60
2022-11-25T12:18:50.138Z,6.50
2022-11-25T12:21:30.762Z,6.80
2022-11-25T12:24:05.712Z,6.50
2022-11-25T12:26:44.301Z,6.60
2022-11-25T12:29:18.057Z,6.50
2022-11-25T12:31:52.990Z,6.50
2022-11-25T12:34:28.924Z,6.50
2022-11-25T12:37:10.625Z,6.50
2022-11-25T12:39:46.341Z,6.30
2022-11-25T12:42:17.214Z,6.40
2022-11-25T12:44:53.263Z,6.30
2022-11-25T12:47:22.612Z,6.30
2022-11-25T12:49:52.823Z,6.10
2022-11-25T12:52:36.930Z,6.20
2022-11-25T12:55:13.437Z,6.30
2022-11-25T12:58:16.896Z,6.30
2022-11-25T13:01:20.602Z,6.40
2022-11-25T13:04:09.736Z,6.20
2022-11-25T13:07:09.270Z,6.10
2022-11-25T13:10:10.483Z,6.20
2022-11-25T13:12:47.351Z,6.30
2022-11-25T13:15:37.840Z,6.30
2022-11-25T13:18:12.376Z,6.00
2022-11-25T13:20:44.976Z,6.10
2022-11-25T13:23:45.988Z,6.10
2022-11-25T13:26:50.631Z,6.30
2022-11-25T13:30:00.896Z,6.40
2022-11-25T13:32:49.527Z,6.10
2022-11-25T13:35:38.038Z,6.30
2022-11-25T13:38:38.467Z,6.10
2022-11-25T13:41:25.468Z,6.10
2022-11-25T13:44:01.697Z,6.20
2022-11-25T13:46:38.257Z,6.40
2022-11-25T13:49:07.821Z,6.10
2022-11-25T13:51:37.950Z,6.30
2022-11-25T13:54:07.630Z,6.30
2022-11-25T13:56:37.531Z,6.30
2022-11-25T13:59:35.714Z,6.40
2022-11-25T14:02:35.674Z,6.40
2022-11-25T14:05:21.469Z,6.40
2022-11-25T14:08:07.535Z,6.20
2022-11-25T14:10:46.491Z,6.20
2022-11-25T14:13:40.825Z,6.20
2022-11-25T14:16:20.760Z,6.40
2022-11-25T14:22:11.503Z,6.30
2022-11-25T14:24:44.144Z,6.10
2022-11-25T14:27:18.666Z,6.40
2022-11-25T14:29:51.784Z,6.30
2022-11-25T14:32:22.384Z,6.30
2022-11-25T14:34:55.769Z,6.10
2022-11-25T14:37:29.520Z,6.30
2022-11-25T14:40:02.101Z,6.00
2022-11-25T14:42:38.292Z,6.30
2022-11-25T14:45:21.555Z,6.10
2022-11-25T14:47:49.433Z,6.00
2022-11-25T14:50:34.200Z,6.20
2022-11-25T14:53:07.120Z,6.50
2022-11-25T14:55:37.699Z,6.40
2022-11-25T14:58:05.695Z,6.30
2022-11-25T15:00:33.710Z,6.00
2022-11-25T15:03:03.392Z,6.10
2022-11-25T15:05:34.808Z,6.10
2022-11-25T15:08:04.418Z,6.30
2022-11-25T15:10:41.858Z,6.40
2022-11-25T15:13:27.083Z,6.40
2022-11-25T15:15:55.925Z,6.40
2022-11-25T15:18:25.825Z,6.40
2022-11-25T15:20:58.903Z,6.50
2022-11-25T15:23:31.862Z,6.50
2022-11-25T15:26:01.940Z,6.10
2022-11-25T15:28:36.068Z,6.10
2022-11-25T15:31:10.241Z,6.50
2022-11-25T15:33:38.805Z,6.40
2022-11-25T15:36:07.148Z,6.10
2022-11-25T15:38:38.171Z,6.10
2022-11-25T15:41:14.616Z,6.20
2022-11-25T15:43:47.318Z,6.30
2022-11-25T15:46:16.668Z,6.20
2022-11-25T15:48:46.685Z,6.20
2022-11-25T15:51:31.917Z,6.20
2022-11-25T15:54:03.961Z,6.30
2022-11-25T15:56:36.500Z,6.10
2022-11-25T15:59:04.356Z,6.50
2022-11-25T16:01:32.299Z,6.40
2022-11-25T16:04:20.453Z,6.20
2022-11-25T16:06:56.963Z,6.40
2022-11-25T16:09:28.618Z,6.20
2022-11-25T16:12:07.020Z,6.40
2022-11-25T16:14:37.850Z,6.40
2022-11-25T16:17:10.899Z,6.10
2022-11-25T16:19:42.083Z,6.20
2022-11-25T16:22:15.945Z,6.40
2022-11-25T16:24:50.431Z,6.20
2022-11-25T16:27:23.095Z,6.60
2022-11-25T16:29:54.544Z,6.50
2022-11-25T16:32:24.238Z,6.60
2022-11-25T16:34:52.340Z,6.40
2022-11-25T16:37:20.084Z,6.60
2022-11-25T16:39:47.822Z,6.60
2022-11-25T16:42:21.129Z,6.60
2022-11-25T16:44:50.945Z,6.50
2022-11-25T16:47:19.750Z,6.50
2022-11-25T16:49:47.549Z,6.60
2022-11-25T16:52:15.431Z,6.20
2022-11-25T16:54:43.218Z,6.80
2022-11-25T16:57:17.327Z,6.50
2022-11-25T16:59:48.722Z,6.70
2022-11-25T17:02:19.598Z,6.60
2022-11-25T17:04:48.541Z,6.50
2022-11-25T17:07:34.527Z,6.40
2022-11-25T17:10:02.955Z,6.60
2022-11-25T17:12:33.874Z,6.70
2022-11-25T17:15:06.066Z,6.80
2022-11-25T17:17:34.916Z,6.50
2022-11-25T17:20:02.767Z,6.70
2022-11-25T17:22:36.091Z,6.80
2022-11-25T17:25:07.105Z,6.60
2022-11-25T17:27:35.084Z,6.30
2022-11-25T17:30:06.406Z,6.50
2022-11-25T17:32:35.201Z,6.70
2022-11-25T17:35:02.905Z,6.80
2022-11-25T17:37:32.793Z,6.50
2022-11-25T17:40:00.621Z,6.80
2022-11-25T17:42:31.681Z,6.80
2022-11-25T17:45:00.599Z,6.80
2022-11-25T17:47:29.689Z,6.80
2022-11-25T17:49:57.789Z,6.70
2022-11-25T17:52:25.596Z,6.70
2022-11-25T17:54:53.398Z,6.70
2022-11-25T17:57:23.236Z,6.70
2022-11-25T17:59:51.252Z,6.80
2022-11-25T18:02:20.819Z,6.80
2022-11-25T18:04:50.316Z,6.80
2022-11-25T18:07:18.532Z,6.80
2022-11-25T18:09:46.413Z,6.80
2022-11-25T18:12:18.338Z,6.80
2022-11-25T18:14:46.432Z,6.70
2022-11-25T18:17:17.112Z,6.80
2022-11-25T18:19:49.799Z,6.80
2022-11-25T18:22:20.897Z,6.80
2022-11-25T18:24:48.702Z,6.80
2022-11-25T18:27:22.949Z,6.80
2022-11-25T18:29:51.355Z,6.80
2022-11-25T18:32:19.135Z,6.80
2022-11-25T18:34:48.022Z,6.80
2022-11-25T18:37:15.847Z,6.80
2022-11-25T18:39:45.022Z,6.80
2022-11-25T18:42:23.493Z,6.90
2022-11-25T18:44:51.387Z,6.80
2022-11-25T18:47:19.175Z,7.10
2022-11-25T18:49:51.006Z,6.90
2022-11-25T18:52:21.817Z,6.90
2022-11-25T18:54:50.948Z,6.80
2022-11-25T18:57:18.832Z,6.90
2022-11-25T18:59:56.022Z,6.80
2022-11-25T19:02:35.129Z,6.70
2022-11-25T19:05:03.777Z,6.70
2022-11-25T19:07:31.605Z,6.70
2022-11-25T19:10:00.745Z,6.50
2022-11-25T19:12:28.551Z,6.50
2022-11-25T19:14:57.192Z,6.40
2022-11-25T19:17:25.997Z,6.40
2022-11-25T19:19:53.761Z,6.30
2022-11-25T19:22:22.666Z,6.30
2022-11-25T19:24:50.399Z,6.20
2022-11-25T19:27:23.361Z,6.10
2022-11-25T19:29:52.831Z,6.20
2022-11-25T19:32:23.683Z,6.20
2022-11-25T19:34:53.997Z,6.20
2022-11-25T19:37:23.460Z,6.20
2022-11-25T19:39:52.976Z,6.20
2022-11-25T19:42:24.623Z,6.30
2022-11-25T19:44:52.991Z,6.30
2022-11-25T19:47:23.678Z,6.30
2022-11-25T19:49:53.842Z,6.30
2022-11-25T19:52:23.372Z,6.40
2022-11-25T19:54:51.277Z,6.40
2022-11-25T19:57:22.931Z,6.40
2022-11-25T19:59:50.939Z,6.50
2022-11-25T20:02:21.864Z,6.50
2022-11-25T20:04:52.047Z,6.50
2022-11-25T20:07:22.413Z,6.50
2022-11-25T20:09:51.583Z,6.60
2022-11-25T20:12:24.059Z,6.60
2022-11-25T20:14:52.723Z,6.60
2022-11-25T20:17:27.435Z,6.50
2022-11-25T20:19:58.029Z,6.50
2022-11-25T20:22:29.916Z,6.50
2022-11-25T20:25:01.348Z,6.50
2022-11-25T20:27:30.520Z,6.50
2022-11-25T20:29:58.387Z,6.50
2022-11-25T20:32:28.862Z,6.50
2022-11-25T20:34:57.137Z,6.50
2022-11-25T20:37:25.905Z,6.50
2022-11-25T20:39:54.990Z,6.50
2022-11-25T20:42:24.052Z,6.50
2022-11-25T20:44:57.509Z,6.60
2022-11-25T20:47:27.207Z,6.60
2022-11-25T20:49:55.016Z,6.60
2022-11-25T20:52:28.134Z,6.70
2022-11-25T20:54:55.888Z,6.70
2022-11-25T20:57:23.748Z,6.60
2022-11-25T20:59:52.836Z,6.60
2022-11-25T21:02:21.537Z,6.60
2022-11-25T21:04:49.484Z,6.60
2022-11-25T21:07:18.542Z,6.60
2022-11-25T21:09:46.356Z,6.60
2022-11-25T21:12:19.258Z,6.60
2022-11-25T21:14:47.695Z,6.60
2022-11-25T21:17:16.821Z,6.60
2022-11-25T21:19:44.591Z,6.50
2022-11-25T21:22:14.520Z,6.50
2022-11-25T21:24:42.772Z,6.50
2022-11-25T21:27:15.142Z,6.50
2022-11-25T21:29:43.928Z,6.60
2022-11-25T21:32:21.382Z,6.50
2022-11-25T21:34:49.469Z,6.60
2022-11-25T21:37:17.911Z,6.60
2022-11-25T21:39:45.904Z,6.60
2022-11-25T21:42:22.123Z,6.60
2022-11-25T21:44:51.884Z,6.60
2022-11-25T21:47:23.421Z,6.60
2022-11-25T21:49:51.842Z,6.70
2022-11-25T21:52:20.228Z,6.70
2022-11-25T21:54:48.423Z,6.70
2022-11-25T21:57:17.762Z,6.80
2022-11-25T21:59:47.109Z,6.90
2022-11-25T22:02:18.548Z,6.90
2022-11-25T22:04:47.750Z,7.00
2022-11-25T22:07:15.645Z,7.00
2022-11-25T22:09:43.809Z,7.10
2022-11-25T22:12:27.594Z,7.10
2022-11-25T22:14:56.031Z,7.10
2022-11-25T22:17:23.850Z,7.20
2022-11-25T22:19:53.404Z,7.20
2022-11-25T22:22:21.196Z,7.20
2022-11-25T22:24:49.016Z,7.30
2022-11-25T22:27:22.289Z,7.20
2022-11-25T22:29:50.607Z,7.20
2022-11-25T22:32:19.061Z,7.20
2022-11-25T22:34:48.252Z,7.30
2022-11-25T22:37:19.284Z,7.30
2022-11-25T22:39:47.613Z,7.30
2022-11-25T22:42:19.544Z,7.30
2022-11-25T22:44:49.884Z,7.30
2022-11-25T22:47:26.071Z,7.30
2022-11-25T22:49:54.470Z,7.30
2022-11-25T22:52:26.974Z,7.30
2022-11-25T22:54:55.465Z,7.30
2022-11-25T22:57:23.206Z,7.30
2022-11-25T22:59:51.032Z,7.30
2022-11-25T23:02:21.562Z,7.40
2022-11-25T23:04:52.659Z,7.40
2022-11-25T23:07:20.923Z,7.40
2022-11-25T23:09:50.428Z,7.50
2022-11-25T23:12:18.798Z,7.50
2022-11-25T23:14:46.595Z,7.50
2022-11-25T23:17:20.709Z,7.40
2022-11-25T23:19:49.023Z,7.50
2022-11-25T23:22:17.122Z,7.50
2022-11-25T23:24:48.480Z,7.50
2022-11-25T23:27:17.817Z,7.50
2022-11-25T23:29:45.876Z,7.60
2022-11-25T23:32:20.545Z,7.50
2022-11-25T23:34:50.519Z,7.30
2022-11-25T23:37:18.531Z,7.50
2022-11-25T23:39:52.165Z,7.40
2022-11-25T23:42:21.437Z,7.60
2022-11-25T23:44:49.177Z,7.50
2022-11-25T23:47:21.257Z,7.40
2022-11-25T23:49:51.716Z,7.90
2022-11-25T23:52:23.208Z,7.60
2022-11-25T23:54:52.755Z,7.50
2022-11-25T23:57:24.312Z,7.50
2022-11-25T23:59:52.919Z,7.70
